TAF PAOR
PAOR 081732Z 0818/0918 30004KT P6SM -SN BKN035 OVC090 FM082000 31003KT P6SM SCT050 BKN100=
METAR PAOR
WC PAOR
WS PAOR
WV PAOR